sensor_id;sensor_type;location;lat;lon;timestamp;P1;durP1;ratioP1;P2;durP2;ratioP2
20462;SDS011;10390;53.566;9.980;2023-11-21T00:02:21;7.13;;;6.40;;
20462;SDS011;10390;53.566;9.980;2023-11-21T00:04:48;9.00;;;6.72;;
20462;SDS011;10390;53.566;9.980;2023-11-21T00:07:14;7.85;;;6.40;;
20462;SDS011;10390;53.566;9.980;2023-11-21T00:09:40;8.43;;;6.63;;
20462;SDS011;10390;53.566;9.980;2023-11-21T00:12:06;7.15;;;6.40;;
20462;SDS011;10390;53.566;9.980;2023-11-21T00:14:37;8.43;;;6.10;;
20462;SDS011;10390;53.566;9.980;2023-11-21T00:17:03;7.82;;;6.20;;
20462;SDS011;10390;53.566;9.980;2023-11-21T00:19:30;7.63;;;5.85;;
20462;SDS011;10390;53.566;9.980;2023-11-21T00:21:56;8.73;;;6.25;;
20462;SDS011;10390;53.566;9.980;2023-11-21T00:24:23;7.97;;;6.15;;
20462;SDS011;10390;53.566;9.980;2023-11-21T00:26:49;6.55;;;5.65;;
20462;SDS011;10390;53.566;9.980;2023-11-21T00:29:15;7.78;;;5.45;;
20462;SDS011;10390;53.566;9.980;2023-11-21T00:31:43;7.05;;;5.60;;
20462;SDS011;10390;53.566;9.980;2023-11-21T00:34:09;7.05;;;5.78;;
20462;SDS011;10390;53.566;9.980;2023-11-21T00:36:36;8.45;;;5.85;;
20462;SDS011;10390;53.566;9.980;2023-11-21T00:39:01;7.18;;;5.63;;
20462;SDS011;10390;53.566;9.980;2023-11-21T00:41:27;7.50;;;6.05;;
20462;SDS011;10390;53.566;9.980;2023-11-21T00:43:53;6.40;;;5.43;;
20462;SDS011;10390;53.566;9.980;2023-11-21T00:46:20;6.57;;;5.47;;
20462;SDS011;10390;53.566;9.980;2023-11-21T00:48:45;7.47;;;5.85;;
20462;SDS011;10390;53.566;9.980;2023-11-21T00:51:11;10.10;;;6.15;;
20462;SDS011;10390;53.566;9.980;2023-11-21T00:53:37;7.15;;;5.47;;
20462;SDS011;10390;53.566;9.980;2023-11-21T00:56:02;8.57;;;5.78;;
20462;SDS011;10390;53.566;9.980;2023-11-21T00:58:28;8.30;;;5.82;;
20462;SDS011;10390;53.566;9.980;2023-11-21T01:00:55;7.10;;;5.72;;
20462;SDS011;10390;53.566;9.980;2023-11-21T01:03:21;7.40;;;6.30;;
20462;SDS011;10390;53.566;9.980;2023-11-21T01:05:47;8.05;;;6.03;;
20462;SDS011;10390;53.566;9.980;2023-11-21T01:08:14;7.05;;;6.28;;
20462;SDS011;10390;53.566;9.980;2023-11-21T01:10:40;9.77;;;6.15;;
20462;SDS011;10390;53.566;9.980;2023-11-21T01:13:06;8.40;;;6.40;;
20462;SDS011;10390;53.566;9.980;2023-11-21T01:15:32;8.02;;;6.60;;
20462;SDS011;10390;53.566;9.980;2023-11-21T01:17:58;8.57;;;6.32;;
20462;SDS011;10390;53.566;9.980;2023-11-21T01:20:24;7.60;;;6.43;;
20462;SDS011;10390;53.566;9.980;2023-11-21T01:22:49;7.55;;;6.32;;
20462;SDS011;10390;53.566;9.980;2023-11-21T01:25:15;7.45;;;6.05;;
20462;SDS011;10390;53.566;9.980;2023-11-21T01:27:41;6.95;;;6.25;;
20462;SDS011;10390;53.566;9.980;2023-11-21T01:30:08;7.85;;;6.05;;
20462;SDS011;10390;53.566;9.980;2023-11-21T01:32:35;7.47;;;6.18;;
20462;SDS011;10390;53.566;9.980;2023-11-21T01:35:01;7.35;;;6.57;;
20462;SDS011;10390;53.566;9.980;2023-11-21T01:37:28;7.00;;;5.55;;
20462;SDS011;10390;53.566;9.980;2023-11-21T01:39:54;7.25;;;5.80;;
20462;SDS011;10390;53.566;9.980;2023-11-21T01:42:23;6.82;;;6.13;;
20462;SDS011;10390;53.566;9.980;2023-11-21T01:44:49;7.00;;;5.70;;
20462;SDS011;10390;53.566;9.980;2023-11-21T01:47:15;7.32;;;6.15;;
20462;SDS011;10390;53.566;9.980;2023-11-21T01:49:45;6.75;;;5.72;;
20462;SDS011;10390;53.566;9.980;2023-11-21T01:52:11;6.93;;;5.90;;
20462;SDS011;10390;53.566;9.980;2023-11-21T01:54:38;8.65;;;6.45;;
20462;SDS011;10390;53.566;9.980;2023-11-21T01:57:04;8.15;;;6.18;;
20462;SDS011;10390;53.566;9.980;2023-11-21T01:59:37;7.03;;;6.32;;
20462;SDS011;10390;53.566;9.980;2023-11-21T02:02:06;7.35;;;6.22;;
20462;SDS011;10390;53.566;9.980;2023-11-21T02:04:32;8.23;;;6.50;;
20462;SDS011;10390;53.566;9.980;2023-11-21T02:06:58;8.25;;;6.20;;
20462;SDS011;10390;53.566;9.980;2023-11-21T02:09:27;8.23;;;6.30;;
20462;SDS011;10390;53.566;9.980;2023-11-21T02:11:55;6.90;;;5.78;;
20462;SDS011;10390;53.566;9.980;2023-11-21T02:14:21;8.50;;;6.10;;
20462;SDS011;10390;53.566;9.980;2023-11-21T02:16:48;9.57;;;6.38;;
20462;SDS011;10390;53.566;9.980;2023-11-21T02:19:15;6.85;;;6.15;;
20462;SDS011;10390;53.566;9.980;2023-11-21T02:21:50;8.23;;;5.85;;
20462;SDS011;10390;53.566;9.980;2023-11-21T02:24:20;6.78;;;5.72;;
20462;SDS011;10390;53.566;9.980;2023-11-21T02:26:46;6.60;;;5.90;;
20462;SDS011;10390;53.566;9.980;2023-11-21T02:29:12;6.75;;;5.82;;
20462;SDS011;10390;53.566;9.980;2023-11-21T02:31:38;8.52;;;6.05;;
20462;SDS011;10390;53.566;9.980;2023-11-21T02:34:16;7.90;;;5.88;;
20462;SDS011;10390;53.566;9.980;2023-11-21T02:36:42;8.32;;;5.70;;
20462;SDS011;10390;53.566;9.980;2023-11-21T02:39:12;7.10;;;5.82;;
20462;SDS011;10390;53.566;9.980;2023-11-21T02:41:38;7.20;;;5.90;;
20462;SDS011;10390;53.566;9.980;2023-11-21T02:44:04;7.63;;;5.93;;
20462;SDS011;10390;53.566;9.980;2023-11-21T02:46:31;6.70;;;5.90;;
20462;SDS011;10390;53.566;9.980;2023-11-21T02:48:59;6.80;;;5.88;;
20462;SDS011;10390;53.566;9.980;2023-11-21T02:51:28;7.43;;;6.35;;
20462;SDS011;10390;53.566;9.980;2023-11-21T02:53:55;6.43;;;5.40;;
20462;SDS011;10390;53.566;9.980;2023-11-21T02:56:24;7.00;;;5.80;;
20462;SDS011;10390;53.566;9.980;2023-11-21T02:58:51;6.30;;;5.40;;
20462;SDS011;10390;53.566;9.980;2023-11-21T03:01:17;6.25;;;5.65;;
20462;SDS011;10390;53.566;9.980;2023-11-21T03:03:43;7.75;;;5.45;;
20462;SDS011;10390;53.566;9.980;2023-11-21T03:06:08;23.50;;;6.15;;
20462;SDS011;10390;53.566;9.980;2023-11-21T03:08:34;6.47;;;5.82;;
20462;SDS011;10390;53.566;9.980;2023-11-21T03:11:00;6.85;;;5.85;;
20462;SDS011;10390;53.566;9.980;2023-11-21T03:13:28;8.10;;;5.93;;
20462;SDS011;10390;53.566;9.980;2023-11-21T03:15:53;7.70;;;5.60;;
20462;SDS011;10390;53.566;9.980;2023-11-21T03:18:19;7.18;;;4.93;;
20462;SDS011;10390;53.566;9.980;2023-11-21T03:20:47;7.30;;;6.05;;
20462;SDS011;10390;53.566;9.980;2023-11-21T03:23:13;6.90;;;5.90;;
20462;SDS011;10390;53.566;9.980;2023-11-21T03:25:38;7.03;;;5.40;;
20462;SDS011;10390;53.566;9.980;2023-11-21T03:28:04;7.93;;;5.80;;
20462;SDS011;10390;53.566;9.980;2023-11-21T03:30:30;6.50;;;5.72;;
20462;SDS011;10390;53.566;9.980;2023-11-21T03:32:55;6.50;;;5.53;;
20462;SDS011;10390;53.566;9.980;2023-11-21T03:35:21;6.55;;;5.65;;
20462;SDS011;10390;53.566;9.980;2023-11-21T03:37:48;7.35;;;5.25;;
20462;SDS011;10390;53.566;9.980;2023-11-21T03:40:13;7.68;;;5.55;;
20462;SDS011;10390;53.566;9.980;2023-11-21T03:42:39;7.28;;;5.80;;
20462;SDS011;10390;53.566;9.980;2023-11-21T03:45:05;6.50;;;5.15;;
20462;SDS011;10390;53.566;9.980;2023-11-21T03:47:31;6.78;;;5.80;;
20462;SDS011;10390;53.566;9.980;2023-11-21T03:49:57;7.40;;;5.75;;
20462;SDS011;10390;53.566;9.980;2023-11-21T03:52:23;6.22;;;5.60;;
20462;SDS011;10390;53.566;9.980;2023-11-21T03:54:50;7.78;;;6.20;;
20462;SDS011;10390;53.566;9.980;2023-11-21T03:57:15;6.00;;;5.40;;
20462;SDS011;10390;53.566;9.980;2023-11-21T03:59:41;7.15;;;5.47;;
20462;SDS011;10390;53.566;9.980;2023-11-21T04:02:08;6.30;;;5.45;;
20462;SDS011;10390;53.566;9.980;2023-11-21T04:04:34;7.50;;;5.85;;
20462;SDS011;10390;53.566;9.980;2023-11-21T04:07:01;7.15;;;5.90;;
20462;SDS011;10390;53.566;9.980;2023-11-21T04:09:26;5.70;;;5.10;;
20462;SDS011;10390;53.566;9.980;2023-11-21T04:11:52;6.63;;;5.57;;
20462;SDS011;10390;53.566;9.980;2023-11-21T04:14:18;6.72;;;5.53;;
20462;SDS011;10390;53.566;9.980;2023-11-21T04:16:44;6.45;;;5.30;;
20462;SDS011;10390;53.566;9.980;2023-11-21T04:19:10;5.93;;;5.18;;
20462;SDS011;10390;53.566;9.980;2023-11-21T04:21:36;5.70;;;4.75;;
20462;SDS011;10390;53.566;9.980;2023-11-21T04:24:02;5.75;;;5.15;;
20462;SDS011;10390;53.566;9.980;2023-11-21T04:26:28;6.97;;;5.25;;
20462;SDS011;10390;53.566;9.980;2023-11-21T04:28:53;6.20;;;5.60;;
20462;SDS011;10390;53.566;9.980;2023-11-21T04:31:19;5.97;;;5.20;;
20462;SDS011;10390;53.566;9.980;2023-11-21T04:33:44;6.32;;;5.15;;
20462;SDS011;10390;53.566;9.980;2023-11-21T04:36:10;6.68;;;5.85;;
20462;SDS011;10390;53.566;9.980;2023-11-21T04:38:36;7.15;;;5.57;;
20462;SDS011;10390;53.566;9.980;2023-11-21T04:41:03;6.20;;;5.20;;
20462;SDS011;10390;53.566;9.980;2023-11-21T04:43:28;5.60;;;4.90;;
20462;SDS011;10390;53.566;9.980;2023-11-21T04:45:54;6.95;;;5.55;;
20462;SDS011;10390;53.566;9.980;2023-11-21T04:48:20;6.22;;;5.03;;
20462;SDS011;10390;53.566;9.980;2023-11-21T04:50:46;6.57;;;5.63;;
20462;SDS011;10390;53.566;9.980;2023-11-21T04:53:11;9.23;;;5.40;;
20462;SDS011;10390;53.566;9.980;2023-11-21T04:55:42;6.50;;;5.20;;
20462;SDS011;10390;53.566;9.980;2023-11-21T04:58:09;6.40;;;5.35;;
20462;SDS011;10390;53.566;9.980;2023-11-21T05:00:36;6.38;;;5.22;;
20462;SDS011;10390;53.566;9.980;2023-11-21T05:03:02;6.85;;;5.78;;
20462;SDS011;10390;53.566;9.980;2023-11-21T05:05:28;7.43;;;5.60;;
20462;SDS011;10390;53.566;9.980;2023-11-21T05:07:57;7.22;;;5.63;;
20462;SDS011;10390;53.566;9.980;2023-11-21T05:10:23;7.32;;;5.43;;
20462;SDS011;10390;53.566;9.980;2023-11-21T05:12:48;7.65;;;5.78;;
20462;SDS011;10390;53.566;9.980;2023-11-21T05:15:15;6.47;;;5.38;;
20462;SDS011;10390;53.566;9.980;2023-11-21T05:17:42;9.63;;;5.78;;
20462;SDS011;10390;53.566;9.980;2023-11-21T05:20:09;7.93;;;5.50;;
20462;SDS011;10390;53.566;9.980;2023-11-21T05:22:36;7.13;;;5.25;;
20462;SDS011;10390;53.566;9.980;2023-11-21T05:25:02;6.97;;;5.30;;
20462;SDS011;10390;53.566;9.980;2023-11-21T05:27:31;5.93;;;5.20;;
20462;SDS011;10390;53.566;9.980;2023-11-21T05:29:57;6.03;;;5.22;;
20462;SDS011;10390;53.566;9.980;2023-11-21T05:32:23;7.13;;;5.53;;
20462;SDS011;10390;53.566;9.980;2023-11-21T05:34:49;7.22;;;5.63;;
20462;SDS011;10390;53.566;9.980;2023-11-21T05:37:15;6.15;;;4.88;;
20462;SDS011;10390;53.566;9.980;2023-11-21T05:39:42;7.30;;;5.13;;
20462;SDS011;10390;53.566;9.980;2023-11-21T05:42:08;7.20;;;5.60;;
20462;SDS011;10390;53.566;9.980;2023-11-21T05:44:35;6.78;;;4.75;;
20462;SDS011;10390;53.566;9.980;2023-11-21T05:47:02;8.32;;;5.55;;
20462;SDS011;10390;53.566;9.980;2023-11-21T05:49:28;6.40;;;4.95;;
20462;SDS011;10390;53.566;9.980;2023-11-21T05:51:54;7.05;;;5.50;;
20462;SDS011;10390;53.566;9.980;2023-11-21T05:54:20;6.22;;;5.18;;
20462;SDS011;10390;53.566;9.980;2023-11-21T05:56:47;8.25;;;5.75;;
20462;SDS011;10390;53.566;9.980;2023-11-21T05:59:12;6.30;;;4.85;;
20462;SDS011;10390;53.566;9.980;2023-11-21T06:01:38;6.10;;;4.55;;
20462;SDS011;10390;53.566;9.980;2023-11-21T06:04:04;10.43;;;5.47;;
20462;SDS011;10390;53.566;9.980;2023-11-21T06:06:30;8.68;;;5.57;;
20462;SDS011;10390;53.566;9.980;2023-11-21T06:08:56;10.15;;;5.80;;
20462;SDS011;10390;53.566;9.980;2023-11-21T06:11:22;8.15;;;5.50;;
20462;SDS011;10390;53.566;9.980;2023-11-21T06:13:49;8.35;;;5.70;;
20462;SDS011;10390;53.566;9.980;2023-11-21T06:16:15;9.25;;;5.75;;
20462;SDS011;10390;53.566;9.980;2023-11-21T06:18:43;13.48;;;6.13;;
20462;SDS011;10390;53.566;9.980;2023-11-21T06:21:12;10.38;;;6.28;;
20462;SDS011;10390;53.566;9.980;2023-11-21T06:23:38;11.77;;;6.30;;
20462;SDS011;10390;53.566;9.980;2023-11-21T06:26:04;18.27;;;6.55;;
20462;SDS011;10390;53.566;9.980;2023-11-21T06:28:31;14.93;;;6.47;;
20462;SDS011;10390;53.566;9.980;2023-11-21T06:30:57;9.93;;;5.82;;
20462;SDS011;10390;53.566;9.980;2023-11-21T06:33:33;12.63;;;6.05;;
20462;SDS011;10390;53.566;9.980;2023-11-21T06:35:58;10.68;;;6.43;;
20462;SDS011;10390;53.566;9.980;2023-11-21T06:38:28;17.48;;;6.30;;
20462;SDS011;10390;53.566;9.980;2023-11-21T06:40:55;14.63;;;6.05;;
20462;SDS011;10390;53.566;9.980;2023-11-21T06:43:21;10.73;;;6.03;;
20462;SDS011;10390;53.566;9.980;2023-11-21T06:45:47;18.35;;;6.43;;
20462;SDS011;10390;53.566;9.980;2023-11-21T06:48:13;12.95;;;6.18;;
20462;SDS011;10390;53.566;9.980;2023-11-21T06:50:38;17.08;;;6.70;;
20462;SDS011;10390;53.566;9.980;2023-11-21T06:53:04;18.15;;;6.38;;
20462;SDS011;10390;53.566;9.980;2023-11-21T06:55:32;14.48;;;6.28;;
20462;SDS011;10390;53.566;9.980;2023-11-21T06:57:58;12.43;;;6.47;;
20462;SDS011;10390;53.566;9.980;2023-11-21T07:00:25;12.40;;;6.28;;
20462;SDS011;10390;53.566;9.980;2023-11-21T07:02:52;13.68;;;5.72;;
20462;SDS011;10390;53.566;9.980;2023-11-21T07:05:19;13.73;;;6.53;;
20462;SDS011;10390;53.566;9.980;2023-11-21T07:07:46;10.90;;;5.78;;
20462;SDS011;10390;53.566;9.980;2023-11-21T07:10:13;10.18;;;5.38;;
20462;SDS011;10390;53.566;9.980;2023-11-21T07:12:39;9.82;;;5.40;;
20462;SDS011;10390;53.566;9.980;2023-11-21T07:15:05;10.52;;;5.53;;
20462;SDS011;10390;53.566;9.980;2023-11-21T07:17:34;14.30;;;6.15;;
20462;SDS011;10390;53.566;9.980;2023-11-21T07:20:01;10.63;;;5.93;;
20462;SDS011;10390;53.566;9.980;2023-11-21T07:22:27;11.93;;;5.82;;
20462;SDS011;10390;53.566;9.980;2023-11-21T07:24:53;11.30;;;5.65;;
20462;SDS011;10390;53.566;9.980;2023-11-21T07:27:19;16.42;;;6.15;;
20462;SDS011;10390;53.566;9.980;2023-11-21T07:29:44;8.73;;;5.75;;
20462;SDS011;10390;53.566;9.980;2023-11-21T07:32:10;10.57;;;6.30;;
20462;SDS011;10390;53.566;9.980;2023-11-21T07:34:36;11.98;;;6.28;;
20462;SDS011;10390;53.566;9.980;2023-11-21T07:37:02;9.90;;;5.90;;
20462;SDS011;10390;53.566;9.980;2023-11-21T07:39:28;10.02;;;6.55;;
20462;SDS011;10390;53.566;9.980;2023-11-21T07:41:55;13.27;;;6.85;;
20462;SDS011;10390;53.566;9.980;2023-11-21T07:44:21;11.48;;;6.93;;
20462;SDS011;10390;53.566;9.980;2023-11-21T07:46:47;13.50;;;7.97;;
20462;SDS011;10390;53.566;9.980;2023-11-21T07:49:14;10.73;;;7.15;;
20462;SDS011;10390;53.566;9.980;2023-11-21T07:51:42;12.15;;;7.07;;
20462;SDS011;10390;53.566;9.980;2023-11-21T07:54:10;11.52;;;7.47;;
20462;SDS011;10390;53.566;9.980;2023-11-21T07:56:36;10.63;;;7.65;;
20462;SDS011;10390;53.566;9.980;2023-11-21T07:59:02;14.90;;;6.78;;
20462;SDS011;10390;53.566;9.980;2023-11-21T08:01:28;9.45;;;6.57;;
20462;SDS011;10390;53.566;9.980;2023-11-21T08:03:54;10.85;;;6.78;;
20462;SDS011;10390;53.566;9.980;2023-11-21T08:06:22;10.88;;;6.88;;
20462;SDS011;10390;53.566;9.980;2023-11-21T08:08:51;9.88;;;6.28;;
20462;SDS011;10390;53.566;9.980;2023-11-21T08:11:16;14.07;;;6.97;;
20462;SDS011;10390;53.566;9.980;2023-11-21T08:13:42;11.55;;;6.70;;
20462;SDS011;10390;53.566;9.980;2023-11-21T08:16:08;8.55;;;6.32;;
20462;SDS011;10390;53.566;9.980;2023-11-21T08:18:33;10.60;;;6.50;;
20462;SDS011;10390;53.566;9.980;2023-11-21T08:20:59;18.15;;;6.60;;
20462;SDS011;10390;53.566;9.980;2023-11-21T08:23:25;8.68;;;5.90;;
20462;SDS011;10390;53.566;9.980;2023-11-21T08:25:51;9.77;;;6.50;;
20462;SDS011;10390;53.566;9.980;2023-11-21T08:28:17;12.55;;;6.25;;
20462;SDS011;10390;53.566;9.980;2023-11-21T08:30:43;9.60;;;6.93;;
20462;SDS011;10390;53.566;9.980;2023-11-21T08:33:09;12.27;;;6.50;;
20462;SDS011;10390;53.566;9.980;2023-11-21T08:35:36;9.77;;;7.05;;
20462;SDS011;10390;53.566;9.980;2023-11-21T08:38:02;8.45;;;6.18;;
20462;SDS011;10390;53.566;9.980;2023-11-21T08:40:28;8.88;;;6.53;;
20462;SDS011;10390;53.566;9.980;2023-11-21T08:42:54;10.65;;;6.95;;
20462;SDS011;10390;53.566;9.980;2023-11-21T08:45:21;10.15;;;7.13;;
20462;SDS011;10390;53.566;9.980;2023-11-21T08:47:47;12.35;;;7.40;;
20462;SDS011;10390;53.566;9.980;2023-11-21T08:50:12;9.02;;;6.75;;
20462;SDS011;10390;53.566;9.980;2023-11-21T08:52:39;10.35;;;6.80;;
20462;SDS011;10390;53.566;9.980;2023-11-21T08:55:06;10.88;;;7.57;;
20462;SDS011;10390;53.566;9.980;2023-11-21T08:57:37;8.77;;;6.90;;
20462;SDS011;10390;53.566;9.980;2023-11-21T09:00:05;9.63;;;7.00;;
20462;SDS011;10390;53.566;9.980;2023-11-21T09:02:33;10.88;;;7.20;;
20462;SDS011;10390;53.566;9.980;2023-11-21T09:04:59;9.77;;;7.50;;
20462;SDS011;10390;53.566;9.980;2023-11-21T09:07:28;8.73;;;7.30;;
20462;SDS011;10390;53.566;9.980;2023-11-21T09:09:54;10.93;;;7.22;;
20462;SDS011;10390;53.566;9.980;2023-11-21T09:12:19;9.45;;;7.32;;
20462;SDS011;10390;53.566;9.980;2023-11-21T09:14:45;9.88;;;7.20;;
20462;SDS011;10390;53.566;9.980;2023-11-21T09:17:11;9.77;;;6.97;;
20462;SDS011;10390;53.566;9.980;2023-11-21T09:19:40;9.30;;;7.47;;
20462;SDS011;10390;53.566;9.980;2023-11-21T09:22:06;9.40;;;7.47;;
20462;SDS011;10390;53.566;9.980;2023-11-21T09:24:32;9.63;;;8.63;;
20462;SDS011;10390;53.566;9.980;2023-11-21T09:26:58;11.43;;;8.43;;
20462;SDS011;10390;53.566;9.980;2023-11-21T09:29:25;10.50;;;7.18;;
20462;SDS011;10390;53.566;9.980;2023-11-21T09:31:54;10.02;;;6.93;;
20462;SDS011;10390;53.566;9.980;2023-11-21T09:34:20;9.77;;;7.47;;
20462;SDS011;10390;53.566;9.980;2023-11-21T09:36:46;8.52;;;6.82;;
20462;SDS011;10390;53.566;9.980;2023-11-21T09:39:12;8.52;;;7.32;;
20462;SDS011;10390;53.566;9.980;2023-11-21T09:44:12;7.90;;;6.40;;
20462;SDS011;10390;53.566;9.980;2023-11-21T09:46:42;8.43;;;6.47;;
20462;SDS011;10390;53.566;9.980;2023-11-21T09:49:11;8.25;;;6.68;;
20462;SDS011;10390;53.566;9.980;2023-11-21T09:51:46;7.93;;;6.35;;
20462;SDS011;10390;53.566;9.980;2023-11-21T09:54:22;8.55;;;7.13;;
20462;SDS011;10390;53.566;9.980;2023-11-21T09:57:00;8.90;;;6.65;;
20462;SDS011;10390;53.566;9.980;2023-11-21T09:59:59;7.45;;;6.65;;
20462;SDS011;10390;53.566;9.980;2023-11-21T10:02:30;8.15;;;6.47;;
20462;SDS011;10390;53.566;9.980;2023-11-21T10:05:18;7.28;;;6.47;;
20462;SDS011;10390;53.566;9.980;2023-11-21T10:07:50;8.45;;;6.80;;
20462;SDS011;10390;53.566;9.980;2023-11-21T10:10:29;8.00;;;6.68;;
20462;SDS011;10390;53.566;9.980;2023-11-21T10:13:00;8.05;;;6.20;;
20462;SDS011;10390;53.566;9.980;2023-11-21T10:19:00;7.72;;;6.57;;
20462;SDS011;10390;53.566;9.980;2023-11-21T10:21:26;6.75;;;6.00;;
20462;SDS011;10390;53.566;9.980;2023-11-21T10:24:19;7.40;;;6.20;;
20462;SDS011;10390;53.566;9.980;2023-11-21T10:27:15;7.85;;;6.40;;
20462;SDS011;10390;53.566;9.980;2023-11-21T10:30:11;8.48;;;7.18;;
20462;SDS011;10390;53.566;9.980;2023-11-21T10:33:07;8.25;;;7.05;;
20462;SDS011;10390;53.566;9.980;2023-11-21T10:35:56;8.07;;;7.03;;
20462;SDS011;10390;53.566;9.980;2023-11-21T10:41:59;8.80;;;6.95;;
20462;SDS011;10390;53.566;9.980;2023-11-21T10:47:16;7.13;;;6.28;;
20462;SDS011;10390;53.566;9.980;2023-11-21T10:49:43;8.00;;;6.95;;
20462;SDS011;10390;53.566;9.980;2023-11-21T10:52:15;10.52;;;7.28;;
20462;SDS011;10390;53.566;9.980;2023-11-21T10:55:01;7.60;;;6.80;;
20462;SDS011;10390;53.566;9.980;2023-11-21T10:57:51;8.18;;;7.05;;
20462;SDS011;10390;53.566;9.980;2023-11-21T11:00:44;7.50;;;6.70;;
20462;SDS011;10390;53.566;9.980;2023-11-21T11:03:19;7.35;;;6.18;;
20462;SDS011;10390;53.566;9.980;2023-11-21T11:05:48;7.68;;;6.88;;
20462;SDS011;10390;53.566;9.980;2023-11-21T11:08:44;6.95;;;6.25;;
20462;SDS011;10390;53.566;9.980;2023-11-21T11:11:27;7.55;;;6.75;;
20462;SDS011;10390;53.566;9.980;2023-11-21T11:14:08;8.07;;;6.70;;
20462;SDS011;10390;53.566;9.980;2023-11-21T11:16:50;6.93;;;6.22;;
20462;SDS011;10390;53.566;9.980;2023-11-21T11:19:30;7.20;;;6.50;;
20462;SDS011;10390;53.566;9.980;2023-11-21T11:22:03;7.30;;;6.60;;
20462;SDS011;10390;53.566;9.980;2023-11-21T11:35:19;6.88;;;6.18;;
20462;SDS011;10390;53.566;9.980;2023-11-21T11:37:59;6.82;;;6.22;;
20462;SDS011;10390;53.566;9.980;2023-11-21T11:40:46;7.72;;;6.10;;
20462;SDS011;10390;53.566;9.980;2023-11-21T11:43:11;7.07;;;6.38;;
20462;SDS011;10390;53.566;9.980;2023-11-21T11:45:37;7.05;;;6.22;;
20462;SDS011;10390;53.566;9.980;2023-11-21T11:48:16;7.13;;;5.90;;
20462;SDS011;10390;53.566;9.980;2023-11-21T11:50:53;7.40;;;6.63;;
20462;SDS011;10390;53.566;9.980;2023-11-21T11:53:36;7.82;;;6.30;;
20462;SDS011;10390;53.566;9.980;2023-11-21T11:58:46;7.28;;;6.50;;
20462;SDS011;10390;53.566;9.980;2023-11-21T12:01:13;7.75;;;6.32;;
20462;SDS011;10390;53.566;9.980;2023-11-21T12:03:38;7.53;;;6.70;;
20462;SDS011;10390;53.566;9.980;2023-11-21T12:06:04;8.32;;;6.70;;
20462;SDS011;10390;53.566;9.980;2023-11-21T12:08:31;9.85;;;7.60;;
20462;SDS011;10390;53.566;9.980;2023-11-21T12:10:57;8.43;;;6.90;;
20462;SDS011;10390;53.566;9.980;2023-11-21T12:13:23;7.60;;;6.63;;
20462;SDS011;10390;53.566;9.980;2023-11-21T12:15:49;7.50;;;6.18;;
20462;SDS011;10390;53.566;9.980;2023-11-21T12:18:15;7.28;;;6.32;;
20462;SDS011;10390;53.566;9.980;2023-11-21T12:20:41;7.50;;;6.70;;
20462;SDS011;10390;53.566;9.980;2023-11-21T12:23:07;7.78;;;6.97;;
20462;SDS011;10390;53.566;9.980;2023-11-21T12:25:34;7.90;;;6.65;;
20462;SDS011;10390;53.566;9.980;2023-11-21T12:28:01;7.85;;;6.13;;
20462;SDS011;10390;53.566;9.980;2023-11-21T12:30:31;7.50;;;6.70;;
20462;SDS011;10390;53.566;9.980;2023-11-21T12:33:00;7.90;;;6.80;;
20462;SDS011;10390;53.566;9.980;2023-11-21T12:35:30;7.55;;;6.60;;
20462;SDS011;10390;53.566;9.980;2023-11-21T12:37:59;7.25;;;6.53;;
20462;SDS011;10390;53.566;9.980;2023-11-21T12:40:25;7.07;;;6.38;;
20462;SDS011;10390;53.566;9.980;2023-11-21T12:42:52;7.55;;;6.80;;
20462;SDS011;10390;53.566;9.980;2023-11-21T12:45:20;7.93;;;6.40;;
20462;SDS011;10390;53.566;9.980;2023-11-21T12:48:02;7.65;;;6.88;;
20462;SDS011;10390;53.566;9.980;2023-11-21T12:50:33;8.32;;;7.13;;
20462;SDS011;10390;53.566;9.980;2023-11-21T12:53:08;8.05;;;7.25;;
20462;SDS011;10390;53.566;9.980;2023-11-21T12:55:35;7.55;;;6.63;;
20462;SDS011;10390;53.566;9.980;2023-11-21T12:58:05;8.38;;;7.22;;
20462;SDS011;10390;53.566;9.980;2023-11-21T13:00:37;7.43;;;6.63;;
20462;SDS011;10390;53.566;9.980;2023-11-21T13:03:08;8.43;;;7.28;;
20462;SDS011;10390;53.566;9.980;2023-11-21T13:05:38;8.48;;;7.38;;
20462;SDS011;10390;53.566;9.980;2023-11-21T13:08:09;7.78;;;6.97;;
20462;SDS011;10390;53.566;9.980;2023-11-21T13:10:38;8.95;;;8.05;;
20462;SDS011;10390;53.566;9.980;2023-11-21T13:13:10;9.23;;;7.95;;
20462;SDS011;10390;53.566;9.980;2023-11-21T13:18:15;9.88;;;8.10;;
20462;SDS011;10390;53.566;9.980;2023-11-21T13:20:42;9.63;;;8.00;;
20462;SDS011;10390;53.566;9.980;2023-11-21T13:23:08;10.25;;;8.45;;
20462;SDS011;10390;53.566;9.980;2023-11-21T13:25:37;11.13;;;8.68;;
20462;SDS011;10390;53.566;9.980;2023-11-21T13:28:05;11.95;;;10.32;;
20462;SDS011;10390;53.566;9.980;2023-11-21T13:30:31;14.63;;;11.95;;
20462;SDS011;10390;53.566;9.980;2023-11-21T13:33:00;14.23;;;11.60;;
20462;SDS011;10390;53.566;9.980;2023-11-21T13:35:27;13.95;;;10.75;;
20462;SDS011;10390;53.566;9.980;2023-11-21T13:40:34;13.23;;;11.45;;
20462;SDS011;10390;53.566;9.980;2023-11-21T13:43:08;12.32;;;10.50;;
20462;SDS011;10390;53.566;9.980;2023-11-21T13:45:37;12.95;;;10.45;;
20462;SDS011;10390;53.566;9.980;2023-11-21T13:48:07;14.52;;;11.20;;
20462;SDS011;10390;53.566;9.980;2023-11-21T13:50:38;12.00;;;9.85;;
20462;SDS011;10390;53.566;9.980;2023-11-21T13:53:26;12.13;;;10.40;;
20462;SDS011;10390;53.566;9.980;2023-11-21T13:55:51;12.35;;;10.98;;
20462;SDS011;10390;53.566;9.980;2023-11-21T13:58:22;13.60;;;10.43;;
20462;SDS011;10390;53.566;9.980;2023-11-21T14:01:06;13.25;;;11.07;;
20462;SDS011;10390;53.566;9.980;2023-11-21T14:03:52;13.23;;;10.52;;
20462;SDS011;10390;53.566;9.980;2023-11-21T14:06:24;13.30;;;10.93;;
20462;SDS011;10390;53.566;9.980;2023-11-21T14:08:57;13.88;;;11.10;;
20462;SDS011;10390;53.566;9.980;2023-11-21T14:11:23;16.05;;;11.38;;
20462;SDS011;10390;53.566;9.980;2023-11-21T14:13:49;15.95;;;12.00;;
20462;SDS011;10390;53.566;9.980;2023-11-21T14:16:15;12.40;;;10.25;;
20462;SDS011;10390;53.566;9.980;2023-11-21T14:18:42;13.50;;;11.68;;
20462;SDS011;10390;53.566;9.980;2023-11-21T14:21:19;12.88;;;11.13;;
20462;SDS011;10390;53.566;9.980;2023-11-21T14:23:44;14.32;;;11.90;;
20462;SDS011;10390;53.566;9.980;2023-11-21T14:26:11;14.50;;;11.55;;
20462;SDS011;10390;53.566;9.980;2023-11-21T14:28:40;14.55;;;11.63;;
20462;SDS011;10390;53.566;9.980;2023-11-21T14:31:06;14.50;;;12.32;;
20462;SDS011;10390;53.566;9.980;2023-11-21T14:33:33;16.40;;;12.18;;
20462;SDS011;10390;53.566;9.980;2023-11-21T14:35:58;15.25;;;12.60;;
20462;SDS011;10390;53.566;9.980;2023-11-21T14:38:24;15.80;;;12.63;;
20462;SDS011;10390;53.566;9.980;2023-11-21T14:40:49;14.23;;;11.55;;
20462;SDS011;10390;53.566;9.980;2023-11-21T14:43:15;15.43;;;11.65;;
20462;SDS011;10390;53.566;9.980;2023-11-21T14:45:42;16.85;;;11.43;;
20462;SDS011;10390;53.566;9.980;2023-11-21T14:48:07;22.08;;;12.20;;
20462;SDS011;10390;53.566;9.980;2023-11-21T14:50:41;25.02;;;12.85;;
20462;SDS011;10390;53.566;9.980;2023-11-21T14:53:08;19.33;;;13.75;;
20462;SDS011;10390;53.566;9.980;2023-11-21T14:55:34;22.88;;;13.10;;
20462;SDS011;10390;53.566;9.980;2023-11-21T14:58:16;25.63;;;13.07;;
20462;SDS011;10390;53.566;9.980;2023-11-21T15:00:51;23.33;;;13.00;;
20462;SDS011;10390;53.566;9.980;2023-11-21T15:03:22;17.73;;;12.75;;
20462;SDS011;10390;53.566;9.980;2023-11-21T15:05:58;19.38;;;12.27;;
20462;SDS011;10390;53.566;9.980;2023-11-21T15:08:42;18.70;;;12.20;;
20462;SDS011;10390;53.566;9.980;2023-11-21T15:11:08;21.52;;;12.32;;
20462;SDS011;10390;53.566;9.980;2023-11-21T15:13:39;19.55;;;11.38;;
20462;SDS011;10390;53.566;9.980;2023-11-21T15:16:06;20.10;;;11.30;;
20462;SDS011;10390;53.566;9.980;2023-11-21T15:18:34;19.25;;;11.95;;
20462;SDS011;10390;53.566;9.980;2023-11-21T15:21:00;19.67;;;12.80;;
20462;SDS011;10390;53.566;9.980;2023-11-21T15:23:28;20.38;;;12.45;;